Time;durP1;ratioP1;P1;durP2;ratioP2;P2;SDS_P1;SDS_P2;PMS_P1;PMS_P2;Temp;Humidity;BMP_temperature;BMP_pressure;BME280_temperature;BME280_humidity;BME280_pressure;Samples;Min_cycle;Max_cycle;Signal;HPM_P1;HPM_P2
2022/09/24 00:01:12;;;;;;;27.73;17.98;;;13.80;99.90;;;;;;5072383;28;20044;-38
2022/09/24 00:03:39;;;;;;;27.27;18.40;;;13.80;99.90;;;;;;5078767;28;20548;-37
2022/09/24 00:06:06;;;;;;;29.88;20.33;;;13.70;99.90;;;;;;5080187;28;20105;-39
2022/09/24 00:08:33;;;;;;;26.15;18.27;;;13.80;99.90;;;;;;5077895;28;20040;-35
2022/09/24 00:11:04;;;;;;;26.95;18.00;;;13.80;99.90;;;;;;5076516;28;20087;-36
2022/09/24 00:13:31;;;;;;;20.40;14.82;;;13.80;99.90;;;;;;5085624;28;20505;-35
2022/09/24 00:16:02;;;;;;;27.05;17.27;;;13.80;99.90;;;;;;5080770;28;20150;-36
2022/09/24 00:18:28;;;;;;;22.50;14.88;;;13.80;99.90;;;;;;5080885;28;20035;-34
2022/09/24 00:20:54;;;;;;;22.48;16.05;;;13.80;99.90;;;;;;5057434;28;20056;-35
2022/09/24 00:23:20;;;;;;;28.17;18.75;;;13.80;99.90;;;;;;5077050;28;20409;-35
2022/09/24 00:28:32;;;;;;;25.05;16.77;;;13.80;99.90;;;;;;5071342;28;20041;-34
2022/09/24 00:31:02;;;;;;;28.15;18.42;;;13.80;99.90;;;;;;5070862;28;20032;-34
2022/09/24 00:33:28;;;;;;;25.98;17.50;;;13.80;99.90;;;;;;5077244;28;20064;-34
2022/09/24 00:36:03;;;;;;;23.75;16.77;;;13.80;99.90;;;;;;5072179;28;20072;-35
2022/09/24 00:38:29;;;;;;;21.88;15.13;;;13.80;99.90;;;;;;5071055;28;20086;-33
2022/09/24 00:40:55;;;;;;;22.70;15.98;;;13.80;99.90;;;;;;5061584;28;20048;-34
2022/09/24 00:43:35;;;;;;;20.85;15.32;;;13.80;99.90;;;;;;5060823;28;20130;-35
2022/09/24 00:46:24;;;;;;;17.92;13.02;;;13.80;99.90;;;;;;5076259;28;20048;-34
2022/09/24 00:48:54;;;;;;;19.92;14.35;;;13.80;99.90;;;;;;5059544;28;20047;-34
2022/09/24 00:51:22;;;;;;;21.60;15.75;;;13.70;99.90;;;;;;5070789;28;20132;-34
2022/09/24 00:53:51;;;;;;;26.27;18.23;;;13.70;99.90;;;;;;5077913;28;20493;-33
2022/09/24 00:56:18;;;;;;;24.92;17.17;;;13.80;99.90;;;;;;5069167;28;20033;-34
2022/09/24 00:58:52;;;;;;;24.42;16.40;;;13.70;99.90;;;;;;5078744;28;20048;-34
2022/09/24 01:01:19;;;;;;;26.75;18.20;;;13.70;99.90;;;;;;5073512;28;20036;-35
2022/09/24 01:03:48;;;;;;;27.55;19.00;;;13.60;99.90;;;;;;5077456;28;20048;-35
2022/09/24 01:06:13;;;;;;;25.67;16.70;;;13.70;99.90;;;;;;5075586;28;20052;-34
2022/09/24 01:08:39;;;;;;;21.13;15.40;;;13.70;99.90;;;;;;5079094;28;20040;-36
2022/09/24 01:11:26;;;;;;;21.58;14.73;;;13.60;99.90;;;;;;5077613;28;20657;-33
2022/09/24 01:14:12;;;;;;;28.33;18.45;;;13.60;99.90;;;;;;5079348;28;20153;-39
2022/09/24 01:17:13;;;;;;;31.95;19.48;;;13.60;99.90;;;;;;5077646;28;20100;-35
2022/09/24 01:20:12;;;;;;;25.33;17.75;;;13.60;99.90;;;;;;5071966;28;20032;-37
2022/09/24 01:22:41;;;;;;;25.27;17.17;;;13.60;99.90;;;;;;5072888;28;20048;-34
2022/09/24 01:25:21;;;;;;;23.73;15.20;;;13.60;99.90;;;;;;5076970;28;20097;-42
2022/09/24 01:28:18;;;;;;;26.90;17.20;;;13.60;99.90;;;;;;5061844;28;20047;-35
2022/09/24 01:30:48;;;;;;;22.17;14.15;;;13.70;99.90;;;;;;5077676;28;20044;-34
2022/09/24 01:33:19;;;;;;;23.95;16.30;;;13.70;99.90;;;;;;5073891;28;20059;-34
2022/09/24 01:35:50;;;;;;;25.17;17.00;;;13.70;99.90;;;;;;5081429;28;20512;-34
2022/09/24 01:38:20;;;;;;;23.45;17.15;;;13.70;99.90;;;;;;5075082;28;20477;-35
2022/09/24 01:40:47;;;;;;;23.63;15.65;;;13.70;99.90;;;;;;5079124;28;20150;-35
2022/09/24 01:43:15;;;;;;;27.45;17.05;;;13.70;99.90;;;;;;5078935;28;20112;-37
2022/09/24 01:45:41;;;;;;;27.63;18.75;;;13.70;99.90;;;;;;5078264;28;20044;-38
2022/09/24 01:48:08;;;;;;;26.60;18.27;;;13.70;99.90;;;;;;5077329;28;20356;-36
2022/09/24 01:50:47;;;;;;;30.92;19.63;;;13.70;99.90;;;;;;5080162;28;20040;-36
2022/09/24 01:53:21;;;;;;;26.90;18.10;;;13.70;99.90;;;;;;5076134;28;20302;-35
2022/09/24 01:55:52;;;;;;;24.63;16.20;;;13.70;99.90;;;;;;5073730;28;20508;-36
2022/09/24 01:58:26;;;;;;;27.00;17.02;;;13.60;99.90;;;;;;5071404;28;20071;-37
2022/09/24 02:01:00;;;;;;;26.05;17.83;;;13.60;99.90;;;;;;5063166;28;20135;-35
2022/09/24 02:03:30;;;;;;;24.00;17.10;;;13.60;99.90;;;;;;5080034;28;20046;-37
2022/09/24 02:05:59;;;;;;;29.23;19.40;;;13.60;99.90;;;;;;5076099;28;20044;-41
2022/09/24 02:08:38;;;;;;;27.63;17.42;;;13.60;99.90;;;;;;5072156;28;20452;-36
2022/09/24 02:11:13;;;;;;;28.92;19.00;;;13.60;99.90;;;;;;5074832;28;20041;-36
2022/09/24 02:14:03;;;;;;;24.08;16.20;;;13.60;99.90;;;;;;5080272;28;20079;-37
2022/09/24 02:16:45;;;;;;;27.08;17.77;;;13.60;99.90;;;;;;5068752;28;20084;-38
2022/09/24 02:19:14;;;;;;;28.58;19.05;;;13.60;99.90;;;;;;5076293;28;20036;-37
2022/09/24 02:21:42;;;;;;;24.88;17.45;;;13.60;99.90;;;;;;5077853;28;20044;-37
2022/09/24 02:24:15;;;;;;;27.55;17.92;;;13.60;99.90;;;;;;5072966;28;20084;-37
2022/09/24 02:26:41;;;;;;;31.90;19.33;;;13.50;99.90;;;;;;5081368;28;20045;-36
2022/09/24 02:29:07;;;;;;;29.00;18.92;;;13.50;99.90;;;;;;5076976;28;20509;-38
2022/09/24 02:31:37;;;;;;;28.42;17.13;;;13.50;99.90;;;;;;5072709;28;20143;-36
2022/09/24 02:34:20;;;;;;;27.08;17.48;;;13.50;99.90;;;;;;5080465;28;20165;-35
2022/09/24 02:37:04;;;;;;;29.58;19.30;;;13.50;99.90;;;;;;5073679;28;20433;-35
2022/09/24 02:39:29;;;;;;;33.35;19.52;;;13.50;99.90;;;;;;5072121;28;20121;-35
2022/09/24 02:41:57;;;;;;;24.95;15.95;;;13.50;99.90;;;;;;5074052;28;20069;-36
2022/09/24 02:44:23;;;;;;;27.67;19.23;;;13.50;99.90;;;;;;5075159;28;20052;-37
2022/09/24 02:46:49;;;;;;;27.73;18.10;;;13.50;99.90;;;;;;5075940;28;20406;-37
2022/09/24 02:49:15;;;;;;;28.58;18.63;;;13.40;99.90;;;;;;5073305;28;20119;-36
2022/09/24 02:51:42;;;;;;;24.60;16.23;;;13.50;99.90;;;;;;5075958;28;20060;-36
2022/09/24 02:54:08;;;;;;;28.35;17.75;;;13.50;99.90;;;;;;5080980;28;20549;-37
2022/09/24 02:56:34;;;;;;;29.92;19.67;;;13.50;99.90;;;;;;5076701;28;20032;-36
2022/09/24 02:59:01;;;;;;;27.83;18.73;;;13.50;99.90;;;;;;5075329;28;20425;-36
2022/09/24 03:01:28;;;;;;;28.80;19.05;;;13.50;99.90;;;;;;5077082;28;20055;-36
2022/09/24 03:03:54;;;;;;;32.30;20.55;;;13.50;99.90;;;;;;5076365;28;20041;-36
2022/09/24 03:06:20;;;;;;;31.63;20.27;;;13.50;99.90;;;;;;5077545;28;20120;-36
2022/09/24 03:08:45;;;;;;;32.25;19.52;;;13.50;99.90;;;;;;5070737;28;20087;-36
2022/09/24 03:11:12;;;;;;;34.13;20.23;;;13.50;99.90;;;;;;5071896;28;20086;-36
2022/09/24 03:13:39;;;;;;;28.08;16.90;;;13.50;99.90;;;;;;5075944;28;20028;-36
2022/09/24 03:16:05;;;;;;;25.17;16.90;;;13.50;99.90;;;;;;5074736;28;20033;-37
2022/09/24 03:18:32;;;;;;;26.77;17.55;;;13.50;99.90;;;;;;5077104;28;20032;-37
2022/09/24 03:21:00;;;;;;;25.65;16.83;;;13.50;99.90;;;;;;5070640;28;20119;-35
2022/09/24 03:23:26;;;;;;;32.03;20.33;;;13.50;99.90;;;;;;5076241;28;20087;-36
2022/09/24 03:25:53;;;;;;;29.33;18.65;;;13.50;99.90;;;;;;5081771;28;20117;-37
2022/09/24 03:28:19;;;;;;;23.20;15.25;;;13.50;99.90;;;;;;5072210;28;20040;-36
2022/09/24 03:30:59;;;;;;;27.20;18.08;;;13.50;99.90;;;;;;5078754;28;20497;-38
2022/09/24 03:33:34;;;;;;;28.15;18.92;;;13.50;99.90;;;;;;5074500;28;20555;-36
2022/09/24 03:36:12;;;;;;;25.63;17.60;;;13.50;99.90;;;;;;5076705;28;20052;-37
2022/09/24 03:38:39;;;;;;;31.95;20.75;;;13.50;99.90;;;;;;5070579;28;20124;-36
2022/09/24 03:41:06;;;;;;;27.52;17.73;;;13.50;99.90;;;;;;5074530;28;20041;-36
2022/09/24 03:43:32;;;;;;;23.80;15.73;;;13.50;99.90;;;;;;5078821;28;20292;-36
2022/09/24 03:45:58;;;;;;;26.30;17.33;;;13.40;99.90;;;;;;5074875;28;20048;-36
2022/09/24 03:48:25;;;;;;;31.65;20.35;;;13.50;99.90;;;;;;5074226;28;20033;-36
2022/09/24 03:50:52;;;;;;;24.45;16.23;;;13.40;99.90;;;;;;5058836;28;20510;-36
2022/09/24 03:53:18;;;;;;;32.38;20.42;;;13.40;99.90;;;;;;5073622;28;20028;-36
2022/09/24 03:55:46;;;;;;;31.33;20.02;;;13.40;99.90;;;;;;5075727;28;20028;-36
2022/09/24 03:58:14;;;;;;;31.40;20.05;;;13.40;99.90;;;;;;5076919;28;20047;-36
2022/09/24 04:00:41;;;;;;;34.50;20.02;;;13.40;99.90;;;;;;5081605;28;20519;-37
2022/09/24 04:03:07;;;;;;;36.33;21.05;;;13.40;99.90;;;;;;5081088;28;20066;-37
2022/09/24 04:05:33;;;;;;;25.73;16.25;;;13.50;99.90;;;;;;5072202;28;20067;-36
2022/09/24 04:07:59;;;;;;;33.13;20.35;;;13.40;99.90;;;;;;5072006;28;20035;-37
2022/09/24 04:10:25;;;;;;;31.73;19.85;;;13.40;99.90;;;;;;5074128;28;20052;-36
2022/09/24 04:12:51;;;;;;;29.50;18.83;;;13.50;99.90;;;;;;5079344;28;20496;-37
2022/09/24 04:15:18;;;;;;;26.65;17.52;;;13.50;99.90;;;;;;5061944;28;20086;-35
2022/09/24 04:17:55;;;;;;;26.70;17.40;;;13.50;99.90;;;;;;5074911;28;20040;-36
2022/09/24 04:20:23;;;;;;;26.77;17.40;;;13.50;99.90;;;;;;5077689;28;20435;-36
2022/09/24 04:22:50;;;;;;;28.67;17.85;;;13.40;99.90;;;;;;5074341;28;20455;-37
2022/09/24 04:25:17;;;;;;;32.05;19.75;;;13.50;99.90;;;;;;5075295;28;20433;-36
2022/09/24 04:27:43;;;;;;;25.33;17.15;;;13.50;99.90;;;;;;5072213;28;20048;-37
2022/09/24 04:30:11;;;;;;;26.58;17.80;;;13.40;99.90;;;;;;5064958;28;20042;-38
2022/09/24 04:32:38;;;;;;;26.80;16.67;;;13.50;99.90;;;;;;5070863;28;20041;-37
2022/09/24 04:35:04;;;;;;;24.13;16.10;;;13.50;99.90;;;;;;5072155;28;20047;-37
2022/09/24 04:37:30;;;;;;;31.13;18.10;;;13.50;99.90;;;;;;5082817;28;20503;-36
2022/09/24 04:39:56;;;;;;;26.20;16.98;;;13.50;99.90;;;;;;5076632;28;20032;-37
2022/09/24 04:42:21;;;;;;;30.00;20.08;;;13.50;99.90;;;;;;5081198;28;20059;-36
2022/09/24 04:44:47;;;;;;;27.67;17.38;;;13.50;99.90;;;;;;5072879;28;20062;-36
2022/09/24 04:47:14;;;;;;;30.38;20.33;;;13.50;99.90;;;;;;5078163;28;20032;-35
2022/09/24 04:49:44;;;;;;;27.40;18.85;;;13.50;99.90;;;;;;5075360;28;20179;-37
2022/09/24 04:52:15;;;;;;;29.05;18.42;;;13.50;99.90;;;;;;5075996;28;20119;-36
2022/09/24 04:54:46;;;;;;;28.05;18.52;;;13.50;99.90;;;;;;5083847;28;20520;-36
2022/09/24 04:57:15;;;;;;;24.30;15.90;;;13.50;99.90;;;;;;5073103;28;20032;-36
2022/09/24 04:59:42;;;;;;;27.75;16.85;;;13.50;99.90;;;;;;5075948;28;20039;-36
2022/09/24 05:02:08;;;;;;;21.55;14.73;;;13.50;99.90;;;;;;5075111;28;20043;-37
2022/09/24 05:04:36;;;;;;;21.17;14.98;;;13.50;99.90;;;;;;5075823;28;20040;-37
2022/09/24 05:07:03;;;;;;;27.42;17.45;;;13.50;99.90;;;;;;5072684;28;20477;-36
2022/09/24 05:09:30;;;;;;;29.85;18.95;;;13.50;99.90;;;;;;5076002;28;20044;-36
2022/09/24 05:11:57;;;;;;;25.90;17.48;;;13.50;99.90;;;;;;5073735;28;20057;-36
2022/09/24 05:14:23;;;;;;;26.17;16.58;;;13.50;99.90;;;;;;5082918;28;20157;-38
2022/09/24 05:16:49;;;;;;;25.60;16.23;;;13.50;99.90;;;;;;5060411;28;20075;-38
2022/09/24 05:19:15;;;;;;;22.35;15.38;;;13.50;99.90;;;;;;5074560;28;20517;-37
2022/09/24 05:21:41;;;;;;;22.90;14.82;;;13.50;99.90;;;;;;5074575;28;20477;-37
2022/09/24 05:24:06;;;;;;;20.67;14.02;;;13.50;99.90;;;;;;5088202;28;20055;-37
2022/09/24 05:29:17;;;;;;;22.40;14.02;;;13.50;99.90;;;;;;5077507;28;20048;-36
2022/09/24 05:31:42;;;;;;;19.85;13.35;;;13.50;99.90;;;;;;5062344;28;20127;-45
2022/09/24 05:34:08;;;;;;;22.95;14.60;;;13.50;99.90;;;;;;5076498;28;20111;-36
2022/09/24 05:36:34;;;;;;;20.67;13.02;;;13.50;99.90;;;;;;5077333;28;20499;-36
2022/09/24 05:39:00;;;;;;;23.20;14.63;;;13.50;99.90;;;;;;5074704;28;20549;-37
2022/09/24 05:41:26;;;;;;;23.50;14.10;;;13.50;99.90;;;;;;5085570;28;20143;-37
2022/09/24 05:43:52;;;;;;;20.77;13.35;;;13.50;99.90;;;;;;5078728;28;20505;-37
2022/09/24 05:46:17;;;;;;;19.35;12.50;;;13.50;99.90;;;;;;5073803;28;20035;-35
2022/09/24 05:48:43;;;;;;;19.38;12.15;;;13.50;99.90;;;;;;5074949;28;20037;-37
2022/09/24 05:51:09;;;;;;;20.02;12.52;;;13.50;99.90;;;;;;5077847;28;20051;-37
2022/09/24 05:53:34;;;;;;;21.02;14.23;;;13.50;99.90;;;;;;5076058;28;20561;-36
2022/09/24 05:56:00;;;;;;;19.27;12.60;;;13.50;99.90;;;;;;5077587;28;20071;-37
2022/09/24 05:58:26;;;;;;;19.33;11.77;;;13.50;99.90;;;;;;5075978;28;20033;-37
2022/09/24 06:00:52;;;;;;;21.83;13.55;;;13.50;99.90;;;;;;5076411;28;20545;-36
2022/09/24 06:03:19;;;;;;;17.95;12.15;;;13.50;99.90;;;;;;5075012;28;20048;-37
2022/09/24 06:05:47;;;;;;;19.50;13.20;;;13.50;99.90;;;;;;5073615;28;20043;-38
2022/09/24 06:08:14;;;;;;;19.08;11.75;;;13.50;99.90;;;;;;5074576;28;20052;-37
2022/09/24 06:10:45;;;;;;;18.63;11.98;;;13.50;99.90;;;;;;5076511;28;20106;-37
2022/09/24 06:13:11;;;;;;;22.88;13.50;;;13.50;99.90;;;;;;5062671;28;20041;-37
2022/09/24 06:15:37;;;;;;;18.70;12.60;;;13.50;99.90;;;;;;5071689;28;20036;-36
2022/09/24 06:18:04;;;;;;;17.33;10.18;;;13.50;99.90;;;;;;5075359;28;20551;-36
2022/09/24 06:20:31;;;;;;;17.35;11.35;;;13.50;99.90;;;;;;5073322;28;20039;-37
2022/09/24 06:22:56;;;;;;;14.50;9.63;;;13.50;99.90;;;;;;5079448;28;20544;-36
2022/09/24 06:25:23;;;;;;;19.80;12.32;;;13.50;99.90;;;;;;5078221;28;20133;-36
2022/09/24 06:28:00;;;;;;;15.07;10.63;;;13.50;99.90;;;;;;5073573;28;20043;-35
2022/09/24 06:30:32;;;;;;;17.52;11.18;;;13.50;99.90;;;;;;5074154;28;20063;-41
2022/09/24 06:33:03;;;;;;;17.52;10.73;;;13.50;99.90;;;;;;5076068;28;20130;-35
2022/09/24 06:35:33;;;;;;;13.48;8.88;;;13.50;99.90;;;;;;5082701;28;20107;-36
2022/09/24 06:37:59;;;;;;;13.25;8.77;;;13.50;99.90;;;;;;5078747;28;20381;-38
2022/09/24 06:40:25;;;;;;;14.18;9.23;;;13.50;99.90;;;;;;5074476;28;20048;-38
2022/09/24 06:42:54;;;;;;;18.00;10.75;;;13.50;99.90;;;;;;5067210;28;20044;-37
2022/09/24 06:45:20;;;;;;;16.20;10.60;;;13.50;99.90;;;;;;5074465;28;20035;-37
2022/09/24 06:47:54;;;;;;;14.60;9.13;;;13.50;99.90;;;;;;5075563;28;20041;-38
2022/09/24 06:50:21;;;;;;;15.02;10.10;;;13.50;99.90;;;;;;5076610;28;20047;-37
2022/09/24 06:52:47;;;;;;;13.93;9.07;;;13.50;99.90;;;;;;5076649;28;20119;-37
2022/09/24 06:55:13;;;;;;;16.05;9.95;;;13.50;99.90;;;;;;5076603;28;20155;-38
2022/09/24 06:57:39;;;;;;;14.57;9.40;;;13.60;99.90;;;;;;5078379;28;20505;-37
2022/09/24 07:00:05;;;;;;;15.93;10.05;;;13.60;99.90;;;;;;5074506;28;20091;-37
2022/09/24 07:02:31;;;;;;;15.63;9.93;;;13.60;99.90;;;;;;5068091;28;20067;-37
2022/09/24 07:04:57;;;;;;;15.85;10.00;;;13.60;99.90;;;;;;5072455;28;20060;-37
2022/09/24 07:07:28;;;;;;;15.52;10.30;;;13.60;99.90;;;;;;5073580;28;20044;-37
2022/09/24 07:09:59;;;;;;;16.45;10.32;;;13.60;99.90;;;;;;5081706;28;20040;-39
2022/09/24 07:12:25;;;;;;;14.90;9.80;;;13.60;99.90;;;;;;5073328;28;20477;-38
2022/09/24 07:14:50;;;;;;;19.48;11.85;;;13.70;99.90;;;;;;5078222;28;20045;-39
2022/09/24 07:17:16;;;;;;;16.88;9.85;;;13.70;99.90;;;;;;5071146;28;20154;-38
2022/09/24 07:19:42;;;;;;;14.00;9.10;;;13.70;99.90;;;;;;5078016;28;20577;-39
2022/09/24 07:22:08;;;;;;;15.50;9.88;;;13.70;99.90;;;;;;5078234;28;20056;-37
2022/09/24 07:24:33;;;;;;;15.93;8.77;;;13.70;99.90;;;;;;5071060;28;20131;-36
2022/09/24 07:26:59;;;;;;;14.30;9.25;;;13.70;99.90;;;;;;5061053;28;20098;-39
2022/09/24 07:29:25;;;;;;;11.10;6.90;;;13.70;99.90;;;;;;5072444;28;20108;-37
2022/09/24 07:31:51;;;;;;;11.82;6.90;;;13.60;99.90;;;;;;5072543;28;20048;-38
2022/09/24 07:34:16;;;;;;;11.07;6.65;;;13.60;99.90;;;;;;5076732;28;20040;-38
2022/09/24 07:36:42;;;;;;;11.30;6.95;;;13.60;99.90;;;;;;5066721;28;20536;-36
2022/09/24 07:39:08;;;;;;;9.50;5.85;;;13.60;99.90;;;;;;5073333;28;20028;-38
2022/09/24 07:41:34;;;;;;;7.72;4.55;;;13.60;99.90;;;;;;5068006;28;20563;-36
2022/09/24 07:44:00;;;;;;;8.93;4.70;;;13.70;99.90;;;;;;5067586;28;20098;-37
2022/09/24 07:46:26;;;;;;;7.03;4.18;;;13.70;99.90;;;;;;5077471;28;20469;-41
2022/09/24 07:48:55;;;;;;;8.02;4.68;;;13.70;99.90;;;;;;5076423;28;20067;-38
2022/09/24 07:51:22;;;;;;;6.72;3.83;;;13.80;99.90;;;;;;5072346;28;20397;-38
2022/09/24 07:53:48;;;;;;;6.47;3.33;;;13.80;99.90;;;;;;5076280;28;20119;-37
2022/09/24 07:56:14;;;;;;;7.97;4.55;;;13.90;99.90;;;;;;5075746;28;20138;-38
2022/09/24 07:58:40;;;;;;;6.63;3.92;;;13.90;99.90;;;;;;5078392;28;20051;-38
2022/09/24 08:01:09;;;;;;;8.35;4.60;;;14.00;99.90;;;;;;5077063;28;20063;-39
2022/09/24 08:03:35;;;;;;;6.30;3.80;;;14.00;99.90;;;;;;5074821;28;20043;-37
2022/09/24 08:06:03;;;;;;;12.25;4.30;;;14.10;99.90;;;;;;5071687;28;20044;-38
2022/09/24 08:08:29;;;;;;;8.35;4.10;;;14.10;99.90;;;;;;5071526;28;20039;-38
2022/09/24 08:10:55;;;;;;;6.32;3.70;;;14.20;99.90;;;;;;5076929;28;20109;-37
2022/09/24 08:13:21;;;;;;;6.65;3.47;;;14.30;99.90;;;;;;5073154;28;20028;-39
2022/09/24 08:15:46;;;;;;;6.72;3.78;;;14.30;99.90;;;;;;5077075;28;20483;-37
2022/09/24 08:18:12;;;;;;;8.32;3.90;;;14.30;99.90;;;;;;5072099;28;20037;-38
2022/09/24 08:20:38;;;;;;;6.90;3.50;;;14.40;99.90;;;;;;5072591;28;20040;-38
2022/09/24 08:23:08;;;;;;;8.00;4.75;;;14.40;99.90;;;;;;5079644;28;20163;-38
2022/09/24 08:25:34;;;;;;;8.15;4.78;;;14.50;99.90;;;;;;5077953;28;20040;-38
2022/09/24 08:28:05;;;;;;;7.78;3.88;;;14.50;99.90;;;;;;5079882;28;20085;-37
2022/09/24 08:30:31;;;;;;;8.68;4.63;;;14.50;99.90;;;;;;5077604;28;20048;-38
2022/09/24 08:32:57;;;;;;;7.55;4.25;;;14.50;99.90;;;;;;5076767;28;20036;-38
2022/09/24 08:35:24;;;;;;;7.78;4.88;;;14.50;99.90;;;;;;5087340;28;20536;-37
2022/09/24 08:37:52;;;;;;;7.45;4.47;;;14.60;99.90;;;;;;5078244;28;20039;-38
2022/09/24 08:40:24;;;;;;;8.77;4.75;;;14.60;99.90;;;;;;5079931;28;20119;-38
2022/09/24 08:42:57;;;;;;;12.63;5.32;;;14.60;99.90;;;;;;5079020;28;20048;-38
2022/09/24 08:48:21;;;;;;;9.20;4.63;;;14.70;99.90;;;;;;5079944;28;19923;-39
2022/09/24 08:50:56;;;;;;;8.65;4.55;;;14.70;99.90;;;;;;5074105;28;20093;-37
2022/09/24 08:53:39;;;;;;;8.98;4.65;;;14.80;99.90;;;;;;5074875;28;20044;-38
2022/09/24 08:56:07;;;;;;;11.35;4.57;;;14.80;99.90;;;;;;5077768;28;21386;-37
2022/09/24 08:58:51;;;;;;;8.07;3.78;;;14.90;99.90;;;;;;5073240;28;20642;-38
2022/09/24 09:01:59;;;;;;;10.60;4.53;;;15.00;99.90;;;;;;5077854;28;20036;-38
2022/09/24 09:05:03;;;;;;;9.48;4.30;;;15.00;99.90;;;;;;5084356;28;20089;-38
2022/09/24 09:07:44;;;;;;;7.10;2.85;;;15.00;99.90;;;;;;5078093;28;20040;-37
2022/09/24 09:10:15;;;;;;;7.15;3.28;;;15.00;99.90;;;;;;5073474;28;20516;-37
2022/09/24 09:12:53;;;;;;;10.00;3.88;;;15.00;99.90;;;;;;5070909;28;20098;-37
2022/09/24 09:15:32;;;;;;;9.32;3.88;;;15.10;99.90;;;;;;5079418;28;20080;-37
2022/09/24 09:18:16;;;;;;;10.30;3.22;;;15.10;99.90;;;;;;5077579;28;20040;-37
2022/09/24 09:20:44;;;;;;;6.47;2.90;;;15.20;99.90;;;;;;5091771;28;20028;-37
2022/09/24 09:23:35;;;;;;;7.30;2.95;;;15.20;99.90;;;;;;5083259;28;20056;-35
2022/09/24 09:26:01;;;;;;;14.23;3.28;;;15.30;99.90;;;;;;5072630;28;20045;-35
2022/09/24 09:28:28;;;;;;;9.45;2.67;;;15.30;99.90;;;;;;5078140;28;20028;-35
2022/09/24 09:31:24;;;;;;;7.30;2.28;;;15.30;99.90;;;;;;5066144;28;20449;-34
2022/09/24 09:34:28;;;;;;;6.07;2.30;;;15.30;99.90;;;;;;5073092;28;20049;-35
2022/09/24 09:37:10;;;;;;;7.55;2.17;;;15.40;99.90;;;;;;5082204;28;20611;-36
2022/09/24 09:39:53;;;;;;;11.98;1.92;;;15.40;99.90;;;;;;5072004;28;20040;-35
2022/09/24 09:42:35;;;;;;;7.93;1.50;;;15.40;99.90;;;;;;5078143;28;20549;-36
2022/09/24 09:45:13;;;;;;;6.30;1.38;;;15.50;99.90;;;;;;5083540;28;20051;-35
2022/09/24 09:47:51;;;;;;;6.82;0.95;;;15.50;99.90;;;;;;5085622;28;20048;-36
2022/09/24 09:50:50;;;;;;;5.63;1.23;;;15.50;99.90;;;;;;5085373;28;20044;-36
2022/09/24 09:53:22;;;;;;;8.05;1.17;;;15.50;99.90;;;;;;5053566;28;20040;-36
2022/09/24 09:55:55;;;;;;;13.20;1.20;;;15.40;99.90;;;;;;5072149;28;20037;-37
2022/09/24 09:58:26;;;;;;;5.68;0.60;;;15.40;99.90;;;;;;5074652;28;20569;-36
2022/09/24 10:01:02;;;;;;;6.32;0.90;;;15.30;99.90;;;;;;5077720;28;20045;-39
2022/09/24 10:03:34;;;;;;;8.30;0.88;;;15.30;99.90;;;;;;5071337;28;20044;-38
2022/09/24 10:06:04;;;;;;;6.45;1.08;;;15.30;99.90;;;;;;5072579;28;20080;-38
2022/09/24 10:08:30;;;;;;;3.72;0.50;;;15.30;99.90;;;;;;5081358;28;20386;-37
2022/09/24 10:10:58;;;;;;;8.15;1.85;;;15.40;99.90;;;;;;5072651;28;20041;-38
2022/09/24 10:13:25;;;;;;;7.30;1.25;;;15.40;99.90;;;;;;5075004;28;20036;-38
2022/09/24 10:15:58;;;;;;;5.10;0.98;;;15.50;99.90;;;;;;5078757;28;20037;-38
2022/09/24 10:18:31;;;;;;;6.40;0.80;;;15.50;99.90;;;;;;5073241;28;20534;-40
2022/09/24 10:21:01;;;;;;;4.95;0.52;;;15.50;99.90;;;;;;5080337;28;20048;-38
2022/09/24 10:23:40;;;;;;;5.82;1.15;;;15.50;99.90;;;;;;5073776;28;20063;-37
2022/09/24 10:26:07;;;;;;;3.58;0.90;;;15.60;99.90;;;;;;5071673;28;20090;-38
2022/09/24 10:31:38;;;;;;;6.13;0.70;;;15.70;99.90;;;;;;5071903;28;20056;-38
2022/09/24 10:34:17;;;;;;;4.78;0.73;;;15.80;99.90;;;;;;5078643;28;20111;-38
2022/09/24 10:36:51;;;;;;;6.20;0.65;;;15.80;99.90;;;;;;5078513;28;20042;-38
2022/09/24 10:39:17;;;;;;;3.13;0.50;;;15.90;99.90;;;;;;5063999;28;20051;-38
2022/09/24 10:41:47;;;;;;;4.85;0.50;;;16.00;99.90;;;;;;5061389;28;20047;-37
2022/09/24 10:44:15;;;;;;;5.03;0.70;;;16.10;99.90;;;;;;5078511;28;20390;-36
2022/09/24 10:46:59;;;;;;;6.60;0.70;;;16.10;99.90;;;;;;5072695;28;20048;-36
2022/09/24 10:49:37;;;;;;;5.32;0.55;;;16.20;99.90;;;;;;5074198;28;20042;-36
2022/09/24 10:52:29;;;;;;;3.03;0.47;;;16.20;99.90;;;;;;5073717;28;20072;-36
2022/09/24 10:55:30;;;;;;;3.10;0.85;;;16.10;99.90;;;;;;5075272;28;20110;-37
2022/09/24 10:58:22;;;;;;;1.75;0.30;;;16.00;99.90;;;;;;5073104;28;20051;-36
2022/09/24 11:00:48;;;;;;;2.33;0.30;;;16.00;99.90;;;;;;5074447;28;20036;-35
2022/09/24 11:03:35;;;;;;;2.47;0.40;;;16.00;99.90;;;;;;5076783;28;20262;-37
2022/09/24 11:06:17;;;;;;;3.90;0.45;;;16.00;99.90;;;;;;5065681;28;20037;-38
2022/09/24 11:09:07;;;;;;;2.25;0.43;;;16.00;99.90;;;;;;5071118;28;20513;-38
2022/09/24 11:12:00;;;;;;;2.95;0.55;;;16.10;99.90;;;;;;5077839;28;20044;-34
2022/09/24 11:15:01;;;;;;;1.33;0.32;;;16.10;99.90;;;;;;5078828;28;20036;-35
2022/09/24 11:17:35;;;;;;;4.85;0.70;;;16.10;99.90;;;;;;5046339;28;20044;-37
2022/09/24 11:20:18;;;;;;;2.47;0.50;;;16.10;99.90;;;;;;5073185;28;20559;-35
2022/09/24 11:22:43;;;;;;;;;;;16.10;99.90;;;;;;5077226;28;20277;-35
2022/09/24 11:25:43;;;;;;;3.03;0.45;;;16.00;99.90;;;;;;5076906;28;20491;-39
2022/09/24 11:28:27;;;;;;;4.38;0.57;;;16.00;99.90;;;;;;5079656;28;20473;-38
2022/09/24 11:31:04;;;;;;;5.65;0.77;;;16.00;99.90;;;;;;5073415;28;20044;-38
2022/09/24 11:34:22;;;;;;;3.42;0.50;;;16.00;99.90;;;;;;5069800;28;20509;-38
2022/09/24 11:37:15;;;;;;;2.50;0.95;;;16.00;99.90;;;;;;5023784;28;20087;-39
2022/09/24 11:39:43;;;;;;;;;;;16.00;99.90;;;;;;5084359;28;20066;-38
2022/09/24 11:42:30;;;;;;;3.58;0.50;;;16.00;99.90;;;;;;5074042;28;19970;-39
2022/09/24 11:45:28;;;;;;;1.95;0.40;;;16.00;99.90;;;;;;5074523;28;20401;-38
2022/09/24 11:48:21;;;;;;;5.90;0.50;;;16.00;99.90;;;;;;5076320;28;20466;-37
2022/09/24 11:51:22;;;;;;;3.13;0.45;;;16.00;99.90;;;;;;5074467;28;20123;-38
2022/09/24 11:53:57;;;;;;;3.58;0.57;;;16.00;99.90;;;;;;5074119;28;20046;-38
2022/09/24 11:56:55;;;;;;;5.07;0.63;;;16.00;99.90;;;;;;5071853;28;20032;-39
2022/09/24 11:59:46;;;;;;;5.28;0.63;;;16.00;99.90;;;;;;5066186;28;20105;-38
2022/09/24 12:02:28;;;;;;;5.00;0.90;;;15.90;99.90;;;;;;5072353;28;20056;-37
2022/09/24 12:05:08;;;;;;;4.82;0.40;;;15.90;99.90;;;;;;5072461;28;20051;-37
2022/09/24 12:07:42;;;;;;;4.63;0.63;;;15.90;99.90;;;;;;5076499;28;20067;-38
2022/09/24 12:10:37;;;;;;;1.95;0.40;;;15.90;99.90;;;;;;5072569;28;20118;-39
2022/09/24 12:13:18;;;;;;;6.18;0.60;;;15.90;99.90;;;;;;5077990;28;20036;-39
2022/09/24 12:16:11;;;;;;;2.88;0.55;;;15.90;99.90;;;;;;5077242;28;20230;-38
2022/09/24 12:19:05;;;;;;;5.93;0.68;;;16.00;99.90;;;;;;5075413;28;20079;-39
2022/09/24 12:21:32;;;;;;;6.88;0.65;;;16.10;99.90;;;;;;5074509;28;20052;-38
2022/09/24 12:24:08;;;;;;;4.05;0.57;;;16.10;99.90;;;;;;5073828;28;20063;-38
2022/09/24 12:26:37;;;;;;;4.55;0.50;;;16.20;99.90;;;;;;5074348;28;20029;-37
2022/09/24 12:35:18;;;;;;;4.35;0.52;;;16.30;99.90;;;;;;5071524;28;19951;-39
2022/09/24 12:37:47;;;;;;;3.75;0.30;;;16.30;99.90;;;;;;5071691;28;20085;-38
2022/09/24 12:40:34;;;;;;;3.15;0.55;;;16.40;99.90;;;;;;5073483;28;20079;-38
2022/09/24 12:43:03;;;;;;;4.28;0.40;;;16.40;99.90;;;;;;5076183;28;20497;-37
2022/09/24 12:45:29;;;;;;;5.32;0.68;;;16.40;99.90;;;;;;5075123;28;20432;-39
2022/09/24 12:48:00;;;;;;;3.13;0.50;;;16.50;99.90;;;;;;5077425;28;20040;-38
2022/09/24 12:50:29;;;;;;;2.55;0.35;;;16.40;99.90;;;;;;5075249;28;20371;-39
2022/09/24 12:52:55;;;;;;;5.60;0.50;;;16.50;99.90;;;;;;5084406;28;20036;-38
2022/09/24 12:55:23;;;;;;;4.80;0.85;;;16.50;99.90;;;;;;5081386;28;20409;-38
2022/09/24 12:57:54;;;;;;;4.93;0.55;;;16.50;99.90;;;;;;5079620;28;20048;-38
2022/09/24 13:00:44;;;;;;;5.25;0.30;;;16.50;99.90;;;;;;5082364;28;20071;-38
2022/09/24 13:03:33;;;;;;;3.95;0.40;;;16.50;99.90;;;;;;5074944;28;20380;-37
2022/09/24 13:05:59;;;;;;;5.32;0.73;;;16.40;99.90;;;;;;5078328;28;20045;-39
2022/09/24 13:08:37;;;;;;;3.28;0.50;;;16.30;99.90;;;;;;5081453;28;20073;-38
2022/09/24 13:11:23;;;;;;;3.30;1.00;;;16.20;99.90;;;;;;5079920;28;20490;-37
2022/09/24 13:14:04;;;;;;;2.83;0.73;;;16.20;99.90;;;;;;5082121;28;20032;-38
2022/09/24 13:16:31;;;;;;;7.75;2.03;;;16.10;99.90;;;;;;5074475;28;20135;-37
2022/09/24 13:19:01;;;;;;;3.25;0.50;;;16.10;99.90;;;;;;5077378;28;20105;-38